Time;durP1;ratioP1;P1;durP2;ratioP2;P2;SDS_P1;SDS_P2;PMS_P1;PMS_P2;Temp;Humidity;BMP_temperature;BMP_pressure;BME280_temperature;BME280_humidity;BME280_pressure;Samples;Min_cycle;Max_cycle;Signal;HPM_P1;HPM_P2
2022/07/27 00:00:44;;;;;;;2.70;2.07;;;;;;;;;;5094559;27;24823;-46
2022/07/27 00:03:09;;;;;;;2.30;2.10;;;;;;;;;;5097011;28;25071;-46
2022/07/27 00:05:34;;;;;;;3.70;2.10;;;;;;;;;;5088618;28;24437;-45
2022/07/27 00:08:00;;;;;;;2.03;1.90;;;;;;;;;;5091832;28;24505;-45
2022/07/27 00:10:25;;;;;;;2.50;2.30;;;;;;;;;;5105256;27;24418;-44
2022/07/27 00:12:50;;;;;;;2.95;2.10;;;;;;;;;;5098420;28;24433;-44
2022/07/27 00:15:15;;;;;;;1.90;1.80;;;;;;;;;;5097648;28;25056;-44
2022/07/27 00:17:40;;;;;;;1.70;1.60;;;;;;;;;;5092152;27;24454;-45
2022/07/27 00:20:05;;;;;;;2.10;1.70;;;;;;;;;;5098388;28;24994;-45
2022/07/27 00:22:31;;;;;;;1.97;1.80;;;;;;;;;;5101520;28;24597;-46
2022/07/27 00:24:56;;;;;;;2.13;1.80;;;;;;;;;;5088594;28;24422;-46
2022/07/27 00:27:21;;;;;;;2.17;1.50;;;;;;;;;;5105596;27;24494;-45
2022/07/27 00:29:46;;;;;;;2.22;1.50;;;;;;;;;;5095282;27;24792;-45
2022/07/27 00:32:11;;;;;;;1.80;1.70;;;;;;;;;;5099242;28;24529;-46
2022/07/27 00:34:37;;;;;;;2.00;1.90;;;;;;;;;;5098420;28;25631;-46
2022/07/27 00:37:02;;;;;;;2.00;1.90;;;;;;;;;;5105629;28;24479;-46
2022/07/27 00:39:27;;;;;;;2.20;2.00;;;;;;;;;;5086853;28;24921;-49
2022/07/27 00:41:52;;;;;;;2.17;1.83;;;;;;;;;;5098197;28;24791;-46
2022/07/27 00:44:25;;;;;;;2.23;2.03;;;;;;;;;;5086340;28;25017;-46
2022/07/27 00:46:50;;;;;;;2.30;2.20;;;;;;;;;;5096341;28;24448;-46
2022/07/27 00:49:15;;;;;;;3.17;1.92;;;;;;;;;;5092765;27;24442;-46
2022/07/27 00:51:40;;;;;;;2.23;2.13;;;;;;;;;;5089400;28;24416;-46
2022/07/27 00:54:07;;;;;;;2.40;2.20;;;;;;;;;;5091329;28;21155;-46
2022/07/27 00:56:32;;;;;;;2.50;2.13;;;;;;;;;;5093236;28;24421;-45
2022/07/27 00:58:58;;;;;;;2.60;2.40;;;;;;;;;;5088793;28;24421;-45
2022/07/27 01:01:23;;;;;;;2.67;2.47;;;;;;;;;;5088964;28;24428;-45
2022/07/27 01:03:48;;;;;;;2.77;2.40;;;;;;;;;;5095098;28;24457;-44
2022/07/27 01:06:13;;;;;;;2.20;2.10;;;;;;;;;;5091923;28;24497;-45
2022/07/27 01:08:40;;;;;;;2.35;2.15;;;;;;;;;;5095618;28;24448;-45
2022/07/27 01:11:05;;;;;;;2.28;2.08;;;;;;;;;;5094188;28;24800;-44
2022/07/27 01:13:31;;;;;;;2.60;2.38;;;;;;;;;;5094271;28;24993;-44
2022/07/27 01:15:56;;;;;;;3.77;2.27;;;;;;;;;;5096090;28;24467;-44
2022/07/27 01:18:48;;;;;;;2.33;2.07;;;;;;;;;;5095145;28;24432;-46
2022/07/27 01:21:13;;;;;;;2.28;2.10;;;;;;;;;;5091756;28;24814;-46
2022/07/27 01:23:38;;;;;;;4.23;2.20;;;;;;;;;;5100479;28;24986;-45
2022/07/27 01:26:04;;;;;;;2.80;2.10;;;;;;;;;;5103144;28;24424;-45
2022/07/27 01:28:29;;;;;;;2.47;2.20;;;;;;;;;;5093046;28;24434;-45
2022/07/27 01:30:55;;;;;;;3.90;2.10;;;;;;;;;;5096651;28;25123;-45
2022/07/27 01:33:26;;;;;;;2.70;2.10;;;;;;;;;;5095581;28;24502;-45
2022/07/27 01:35:53;;;;;;;2.97;2.35;;;;;;;;;;5101327;28;24960;-46
2022/07/27 01:38:19;;;;;;;2.10;2.00;;;;;;;;;;5093788;28;24463;-46
2022/07/27 01:40:44;;;;;;;4.23;2.43;;;;;;;;;;5108280;28;24502;-45
2022/07/27 01:43:09;;;;;;;2.30;2.10;;;;;;;;;;5102855;28;24415;-46
2022/07/27 01:45:34;;;;;;;2.25;2.10;;;;;;;;;;5117816;27;24490;-46
2022/07/27 01:48:00;;;;;;;2.33;1.90;;;;;;;;;;5101673;28;25065;-46
2022/07/27 01:50:25;;;;;;;2.20;2.00;;;;;;;;;;5101960;28;24472;-47
2022/07/27 01:52:50;;;;;;;2.20;2.00;;;;;;;;;;5095710;28;24509;-46
2022/07/27 01:55:15;;;;;;;2.40;2.20;;;;;;;;;;5098995;27;24446;-46
2022/07/27 01:57:40;;;;;;;2.75;2.20;;;;;;;;;;5095466;27;24437;-45
2022/07/27 02:00:07;;;;;;;2.33;1.80;;;;;;;;;;5094060;27;24773;-46
2022/07/27 02:02:33;;;;;;;2.63;2.42;;;;;;;;;;5099271;28;24963;-46
2022/07/27 02:04:58;;;;;;;2.00;1.90;;;;;;;;;;5102810;28;24432;-46
2022/07/27 02:07:23;;;;;;;2.57;2.13;;;;;;;;;;5099707;28;24831;-46
2022/07/27 02:09:48;;;;;;;2.23;2.00;;;;;;;;;;5096013;27;24430;-44
2022/07/27 02:14:57;;;;;;;2.88;2.40;;;;;;;;;;5093346;28;24410;-45
2022/07/27 02:17:22;;;;;;;2.00;1.90;;;;;;;;;;5090944;28;24956;-44
2022/07/27 02:19:48;;;;;;;2.33;2.13;;;;;;;;;;5099171;28;24555;-44
2022/07/27 02:22:13;;;;;;;3.00;2.20;;;;;;;;;;5093721;27;24424;-46
2022/07/27 02:24:38;;;;;;;3.00;2.10;;;;;;;;;;5096317;28;24415;-45
2022/07/27 02:27:03;;;;;;;2.13;1.90;;;;;;;;;;5090505;28;24479;-46
2022/07/27 02:29:29;;;;;;;2.20;2.10;;;;;;;;;;5091069;28;24430;-45
2022/07/27 02:31:54;;;;;;;2.20;2.00;;;;;;;;;;5095629;28;24414;-45
2022/07/27 02:34:19;;;;;;;3.53;2.10;;;;;;;;;;5097914;28;24517;-44
2022/07/27 02:36:44;;;;;;;2.70;2.40;;;;;;;;;;5096802;28;24429;-46
2022/07/27 02:39:10;;;;;;;2.30;2.10;;;;;;;;;;5098885;28;24417;-46
2022/07/27 02:41:35;;;;;;;2.38;2.15;;;;;;;;;;5094514;28;24429;-46
2022/07/27 02:44:00;;;;;;;2.30;2.10;;;;;;;;;;5096152;28;24428;-46
2022/07/27 02:46:25;;;;;;;2.30;2.10;;;;;;;;;;5105009;28;24459;-46
2022/07/27 02:48:50;;;;;;;2.63;2.00;;;;;;;;;;5102252;28;24815;-46
2022/07/27 02:51:15;;;;;;;3.53;2.58;;;;;;;;;;5096985;28;24409;-46
2022/07/27 02:53:41;;;;;;;4.37;2.13;;;;;;;;;;5092551;28;24507;-45
2022/07/27 02:56:06;;;;;;;3.93;2.47;;;;;;;;;;5097864;28;24776;-48
2022/07/27 02:58:31;;;;;;;2.20;2.00;;;;;;;;;;5105019;28;24528;-45
2022/07/27 03:00:56;;;;;;;2.85;2.40;;;;;;;;;;5100030;28;24494;-45
2022/07/27 03:03:21;;;;;;;3.10;2.00;;;;;;;;;;5097412;28;24418;-45
2022/07/27 03:05:47;;;;;;;3.00;2.20;;;;;;;;;;5095425;28;24434;-45
2022/07/27 03:08:12;;;;;;;3.00;2.20;;;;;;;;;;5096077;28;24466;-45
2022/07/27 03:10:37;;;;;;;2.70;2.50;;;;;;;;;;5096978;28;24543;-45
2022/07/27 03:13:03;;;;;;;2.87;2.30;;;;;;;;;;5092056;28;24487;-46
2022/07/27 03:15:28;;;;;;;2.90;2.10;;;;;;;;;;5095036;28;24421;-46
2022/07/27 03:17:53;;;;;;;3.90;2.10;;;;;;;;;;5091267;28;24543;-45
2022/07/27 03:20:18;;;;;;;2.10;1.90;;;;;;;;;;5093676;28;24492;-46
2022/07/27 03:22:43;;;;;;;3.60;2.00;;;;;;;;;;5098032;28;24432;-45
2022/07/27 03:25:09;;;;;;;3.17;2.07;;;;;;;;;;5094817;28;24779;-47
2022/07/27 03:27:34;;;;;;;2.10;1.90;;;;;;;;;;5094395;28;24512;-45
2022/07/27 03:30:00;;;;;;;2.72;1.98;;;;;;;;;;5103138;28;24441;-45
2022/07/27 03:32:25;;;;;;;2.40;2.20;;;;;;;;;;5099510;28;24417;-46
2022/07/27 03:34:50;;;;;;;3.03;2.20;;;;;;;;;;5092462;28;24422;-45
2022/07/27 03:37:16;;;;;;;3.67;2.20;;;;;;;;;;5101256;28;24473;-44
2022/07/27 03:39:41;;;;;;;2.50;2.30;;;;;;;;;;5092130;28;24422;-45
2022/07/27 03:42:06;;;;;;;2.77;1.90;;;;;;;;;;5101006;28;24430;-45
2022/07/27 03:44:32;;;;;;;3.40;1.80;;;;;;;;;;5090634;28;25011;-45
2022/07/27 03:46:57;;;;;;;2.80;1.90;;;;;;;;;;5090096;28;24979;-45
2022/07/27 03:49:22;;;;;;;2.77;1.90;;;;;;;;;;5097659;28;24446;-46
2022/07/27 03:51:48;;;;;;;1.70;1.60;;;;;;;;;;5097166;28;24419;-45
2022/07/27 03:54:13;;;;;;;2.27;1.70;;;;;;;;;;5094623;28;24426;-46
2022/07/27 03:56:38;;;;;;;2.72;1.70;;;;;;;;;;5093459;28;24413;-46
2022/07/27 03:59:04;;;;;;;2.20;1.63;;;;;;;;;;5097732;27;24480;-46
2022/07/27 04:01:29;;;;;;;3.50;1.90;;;;;;;;;;5088444;28;24415;-46
2022/07/27 04:03:54;;;;;;;2.15;1.50;;;;;;;;;;5094346;28;24513;-47
2022/07/27 04:06:19;;;;;;;2.17;1.55;;;;;;;;;;5094827;28;24429;-45
2022/07/27 04:08:45;;;;;;;2.03;1.38;;;;;;;;;;5100099;28;24802;-46
2022/07/27 04:11:10;;;;;;;3.43;1.60;;;;;;;;;;5095079;28;24445;-46
2022/07/27 04:13:35;;;;;;;2.70;1.50;;;;;;;;;;5096714;28;24421;-46
2022/07/27 04:16:00;;;;;;;2.00;1.30;;;;;;;;;;5090611;28;24421;-46
2022/07/27 04:18:25;;;;;;;1.70;1.60;;;;;;;;;;5093402;28;24418;-46
2022/07/27 04:20:50;;;;;;;1.63;1.37;;;;;;;;;;5094608;28;25207;-46
2022/07/27 04:23:15;;;;;;;2.40;1.60;;;;;;;;;;5101202;27;24985;-46
2022/07/27 04:25:41;;;;;;;2.33;1.40;;;;;;;;;;5088563;28;24994;-46
2022/07/27 04:28:06;;;;;;;4.47;1.70;;;;;;;;;;5092589;28;25169;-46
2022/07/27 04:30:31;;;;;;;3.00;1.67;;;;;;;;;;5087813;28;25026;-46
2022/07/27 04:32:57;;;;;;;3.90;1.70;;;;;;;;;;5091995;28;24433;-46
2022/07/27 04:35:22;;;;;;;3.63;1.50;;;;;;;;;;5089148;28;24820;-46
2022/07/27 04:37:47;;;;;;;2.78;1.52;;;;;;;;;;5094145;28;24812;-45
2022/07/27 04:40:12;;;;;;;2.53;1.60;;;;;;;;;;5096932;28;24564;-44
2022/07/27 04:42:37;;;;;;;1.40;1.30;;;;;;;;;;5099204;28;25019;-45
2022/07/27 04:45:03;;;;;;;3.20;1.42;;;;;;;;;;5089908;28;24410;-44
2022/07/27 04:47:28;;;;;;;2.90;1.35;;;;;;;;;;5094785;28;24460;-45
2022/07/27 04:49:53;;;;;;;3.90;1.90;;;;;;;;;;5096672;27;24442;-45
2022/07/27 04:52:19;;;;;;;2.57;1.60;;;;;;;;;;5104740;28;24493;-45
2022/07/27 04:54:44;;;;;;;1.93;1.50;;;;;;;;;;5093632;28;24410;-45
2022/07/27 04:57:09;;;;;;;2.93;1.40;;;;;;;;;;5092989;28;24944;-45
2022/07/27 04:59:34;;;;;;;1.85;1.30;;;;;;;;;;5087927;28;24922;-45
2022/07/27 05:01:59;;;;;;;1.57;1.30;;;;;;;;;;5105758;27;24859;-44
2022/07/27 05:04:24;;;;;;;3.88;1.70;;;;;;;;;;5094604;27;24430;-44
2022/07/27 05:06:49;;;;;;;2.40;1.40;;;;;;;;;;5105041;28;24417;-46
2022/07/27 05:09:15;;;;;;;1.95;1.35;;;;;;;;;;5103335;28;24587;-45
2022/07/27 05:11:40;;;;;;;2.40;1.40;;;;;;;;;;5102578;28;24429;-45
2022/07/27 05:14:05;;;;;;;3.90;1.70;;;;;;;;;;5093337;27;24425;-45
2022/07/27 05:16:30;;;;;;;1.60;1.40;;;;;;;;;;5103526;28;24898;-46
2022/07/27 05:18:56;;;;;;;2.30;1.30;;;;;;;;;;5092189;27;24422;-45
2022/07/27 05:21:21;;;;;;;3.90;1.50;;;;;;;;;;5100656;28;24422;-45
2022/07/27 05:23:46;;;;;;;3.00;1.50;;;;;;;;;;5110439;28;24546;-45
2022/07/27 05:26:11;;;;;;;2.20;1.47;;;;;;;;;;5100093;28;25184;-46
2022/07/27 05:28:36;;;;;;;1.50;1.40;;;;;;;;;;5093940;27;24541;-44
2022/07/27 05:31:02;;;;;;;2.97;1.60;;;;;;;;;;5088163;27;24429;-45
2022/07/27 05:33:27;;;;;;;2.00;1.50;;;;;;;;;;5108585;27;24420;-45
2022/07/27 05:35:54;;;;;;;1.87;1.20;;;;;;;;;;5090818;27;25067;-44
2022/07/27 05:38:19;;;;;;;1.63;1.10;;;;;;;;;;5102569;28;24453;-46
2022/07/27 05:40:44;;;;;;;1.77;1.50;;;;;;;;;;5102402;28;24529;-46
2022/07/27 05:43:09;;;;;;;1.90;1.50;;;;;;;;;;5102790;28;24417;-46
2022/07/27 05:45:34;;;;;;;1.30;1.10;;;;;;;;;;5096292;28;24734;-46
2022/07/27 05:48:00;;;;;;;1.80;1.27;;;;;;;;;;5093841;28;24421;-46
2022/07/27 05:50:25;;;;;;;2.97;1.40;;;;;;;;;;5099642;27;24476;-46
2022/07/27 05:52:50;;;;;;;2.20;1.30;;;;;;;;;;5091321;28;24506;-46
2022/07/27 05:55:15;;;;;;;1.97;1.30;;;;;;;;;;5098477;28;24447;-45
2022/07/27 05:57:41;;;;;;;2.63;1.63;;;;;;;;;;5099352;28;24421;-46
2022/07/27 06:00:07;;;;;;;2.08;1.40;;;;;;;;;;5100567;28;24784;-45
2022/07/27 06:02:32;;;;;;;2.87;1.47;;;;;;;;;;5091266;27;24554;-45
2022/07/27 06:04:57;;;;;;;2.30;1.55;;;;;;;;;;5095449;28;24509;-46
2022/07/27 06:10:06;;;;;;;1.70;1.40;;;;;;;;;;5097258;27;24483;-46
2022/07/27 06:12:38;;;;;;;2.60;1.50;;;;;;;;;;5098775;28;25868;-45
2022/07/27 06:15:04;;;;;;;3.72;1.70;;;;;;;;;;5100825;28;24417;-45
2022/07/27 06:17:30;;;;;;;2.00;1.30;;;;;;;;;;5090054;28;24513;-44
2022/07/27 06:19:55;;;;;;;3.40;1.40;;;;;;;;;;5092877;28;24413;-45
2022/07/27 06:22:20;;;;;;;2.53;1.40;;;;;;;;;;5100437;28;24836;-45
2022/07/27 06:24:46;;;;;;;2.60;1.40;;;;;;;;;;5100380;27;24471;-46
2022/07/27 06:27:11;;;;;;;2.70;1.30;;;;;;;;;;5098215;28;24776;-45
2022/07/27 06:29:36;;;;;;;1.75;1.20;;;;;;;;;;5090553;27;25027;-47
2022/07/27 06:32:01;;;;;;;1.52;1.40;;;;;;;;;;5091008;28;24421;-46
2022/07/27 06:34:26;;;;;;;3.00;1.70;;;;;;;;;;5095221;27;24429;-46
2022/07/27 06:36:51;;;;;;;2.00;1.20;;;;;;;;;;5106671;28;24517;-46
2022/07/27 06:39:16;;;;;;;2.30;1.30;;;;;;;;;;5095605;28;24459;-46
2022/07/27 06:41:42;;;;;;;1.90;1.33;;;;;;;;;;5091314;27;24478;-46
2022/07/27 06:44:07;;;;;;;2.50;1.30;;;;;;;;;;5098396;28;24417;-46
2022/07/27 06:46:32;;;;;;;3.15;1.30;;;;;;;;;;5109057;28;24454;-46
2022/07/27 06:48:57;;;;;;;1.70;1.20;;;;;;;;;;5098080;28;24438;-46
2022/07/27 06:51:22;;;;;;;2.20;1.25;;;;;;;;;;5105790;28;24412;-47
2022/07/27 06:53:51;;;;;;;2.53;1.50;;;;;;;;;;5095276;28;24513;-46
2022/07/27 06:56:17;;;;;;;2.60;1.40;;;;;;;;;;5089072;28;24429;-46
2022/07/27 06:58:42;;;;;;;3.43;1.10;;;;;;;;;;5088948;28;24402;-45
2022/07/27 07:01:07;;;;;;;2.00;1.30;;;;;;;;;;5088393;28;24389;-46
2022/07/27 07:03:32;;;;;;;1.70;1.40;;;;;;;;;;5091201;28;24422;-47
2022/07/27 07:05:57;;;;;;;2.17;1.30;;;;;;;;;;5101185;28;24437;-47
2022/07/27 07:08:23;;;;;;;3.60;1.23;;;;;;;;;;5106976;27;24553;-45
2022/07/27 07:10:48;;;;;;;3.20;1.50;;;;;;;;;;5106815;28;24478;-44
2022/07/27 07:13:14;;;;;;;2.20;1.20;;;;;;;;;;5099022;28;24417;-46
2022/07/27 07:15:40;;;;;;;2.55;1.30;;;;;;;;;;5088844;28;24386;-45
2022/07/27 07:18:08;;;;;;;1.80;1.30;;;;;;;;;;5107184;28;24478;-47
2022/07/27 07:20:34;;;;;;;1.50;1.40;;;;;;;;;;5089851;28;24951;-46
2022/07/27 07:22:59;;;;;;;2.85;1.30;;;;;;;;;;5087634;28;24719;-45
2022/07/27 07:25:25;;;;;;;2.80;1.40;;;;;;;;;;5088972;28;24548;-46
2022/07/27 07:27:50;;;;;;;3.08;1.30;;;;;;;;;;5088069;28;24489;-47
2022/07/27 07:30:15;;;;;;;4.03;1.37;;;;;;;;;;5088176;28;24426;-48
2022/07/27 07:32:40;;;;;;;3.42;1.50;;;;;;;;;;5087785;28;24391;-45
2022/07/27 07:35:06;;;;;;;3.33;1.42;;;;;;;;;;5094418;28;24513;-46
2022/07/27 07:37:31;;;;;;;2.10;1.40;;;;;;;;;;5087726;28;24414;-46
2022/07/27 07:39:57;;;;;;;2.17;1.17;;;;;;;;;;5088175;28;24513;-46
2022/07/27 07:42:22;;;;;;;2.03;1.50;;;;;;;;;;5093410;28;24425;-47
2022/07/27 07:44:47;;;;;;;2.17;1.60;;;;;;;;;;5107741;28;24527;-46
2022/07/27 07:47:12;;;;;;;2.13;1.30;;;;;;;;;;5102845;27;24776;-47
2022/07/27 07:49:37;;;;;;;2.20;1.40;;;;;;;;;;5106115;28;24592;-45
2022/07/27 07:52:03;;;;;;;2.05;1.20;;;;;;;;;;5095973;28;24417;-46
2022/07/27 07:54:28;;;;;;;2.40;1.30;;;;;;;;;;5107757;28;24404;-46
2022/07/27 07:56:53;;;;;;;2.00;1.00;;;;;;;;;;5104368;28;24425;-47
2022/07/27 07:59:18;;;;;;;2.70;1.30;;;;;;;;;;5092281;28;24413;-46
2022/07/27 08:01:43;;;;;;;1.70;1.20;;;;;;;;;;5108104;28;24689;-46
2022/07/27 08:04:08;;;;;;;1.20;1.10;;;;;;;;;;5106831;28;24471;-45
2022/07/27 08:06:34;;;;;;;1.60;1.20;;;;;;;;;;5095555;28;24423;-45
2022/07/27 08:08:59;;;;;;;1.90;1.35;;;;;;;;;;5097387;28;24435;-47
2022/07/27 08:11:24;;;;;;;1.97;1.30;;;;;;;;;;5105855;28;24768;-46
2022/07/27 08:13:49;;;;;;;3.60;1.50;;;;;;;;;;5107704;28;24421;-46
2022/07/27 08:16:15;;;;;;;1.20;1.10;;;;;;;;;;5107687;28;24946;-47
2022/07/27 08:18:40;;;;;;;1.53;1.30;;;;;;;;;;5097790;28;24508;-46
2022/07/27 08:21:05;;;;;;;1.70;1.20;;;;;;;;;;5088004;28;24528;-46
2022/07/27 08:23:30;;;;;;;1.45;1.10;;;;;;;;;;5086611;28;25012;-46
2022/07/27 08:25:56;;;;;;;1.50;1.10;;;;;;;;;;5087198;28;24460;-45
2022/07/27 08:28:21;;;;;;;1.60;1.00;;;;;;;;;;5097563;28;24501;-45
2022/07/27 08:30:46;;;;;;;1.50;1.40;;;;;;;;;;5089471;27;24823;-45
2022/07/27 08:33:11;;;;;;;1.57;1.20;;;;;;;;;;5086904;28;24393;-46
2022/07/27 08:35:36;;;;;;;2.50;1.20;;;;;;;;;;5088765;28;24505;-45
2022/07/27 08:38:03;;;;;;;2.37;1.30;;;;;;;;;;5087013;28;24382;-46
2022/07/27 08:40:29;;;;;;;2.28;1.10;;;;;;;;;;5098601;28;24514;-45
2022/07/27 08:42:54;;;;;;;3.07;1.50;;;;;;;;;;5106683;28;24819;-46
2022/07/27 08:45:19;;;;;;;1.67;1.13;;;;;;;;;;5093863;28;24449;-45
2022/07/27 08:47:45;;;;;;;1.83;1.30;;;;;;;;;;5091946;28;24426;-46
2022/07/27 08:50:23;;;;;;;2.60;1.40;;;;;;;;;;5101833;28;25008;-46
2022/07/27 08:52:59;;;;;;;2.33;1.30;;;;;;;;;;5107241;28;24603;-46
2022/07/27 08:55:24;;;;;;;1.35;1.20;;;;;;;;;;5105810;28;24449;-46
2022/07/27 08:57:50;;;;;;;1.93;1.20;;;;;;;;;;5103390;28;24956;-46
2022/07/27 09:00:15;;;;;;;2.60;1.40;;;;;;;;;;5101097;28;24854;-47
2022/07/27 09:02:41;;;;;;;1.87;1.10;;;;;;;;;;5104953;28;24417;-46
2022/07/27 09:05:06;;;;;;;2.17;1.40;;;;;;;;;;5103354;28;25014;-46
2022/07/27 09:07:32;;;;;;;2.10;1.30;;;;;;;;;;5086693;28;24448;-45
2022/07/27 09:09:57;;;;;;;1.57;1.17;;;;;;;;;;5087406;28;24426;-46
2022/07/27 09:12:26;;;;;;;1.90;1.20;;;;;;;;;;5086469;28;24406;-46
2022/07/27 09:15:01;;;;;;;1.40;1.10;;;;;;;;;;5086677;28;24441;-46
2022/07/27 09:17:26;;;;;;;2.03;1.00;;;;;;;;;;5086334;28;24386;-46
2022/07/27 09:19:55;;;;;;;2.22;1.05;;;;;;;;;;5091211;28;24424;-47
2022/07/27 09:22:39;;;;;;;3.95;1.40;;;;;;;;;;5104372;28;24428;-47
2022/07/27 09:25:04;;;;;;;1.55;1.20;;;;;;;;;;5096391;28;24418;-46
2022/07/27 09:27:29;;;;;;;1.20;1.00;;;;;;;;;;5105157;28;24445;-46
2022/07/27 09:30:05;;;;;;;1.00;0.90;;;;;;;;;;5102093;28;24452;-46
2022/07/27 09:32:30;;;;;;;2.80;1.10;;;;;;;;;;5106555;28;24950;-46
2022/07/27 09:34:55;;;;;;;1.33;1.00;;;;;;;;;;5100921;28;24406;-46
2022/07/27 09:37:24;;;;;;;1.47;0.70;;;;;;;;;;5105052;28;24492;-45
2022/07/27 09:39:49;;;;;;;1.40;0.95;;;;;;;;;;5107155;28;24394;-46
2022/07/27 09:42:15;;;;;;;1.40;1.00;;;;;;;;;;5103508;28;25080;-46
2022/07/27 09:44:41;;;;;;;1.70;0.90;;;;;;;;;;5106032;28;24505;-45
2022/07/27 09:47:20;;;;;;;2.00;1.40;;;;;;;;;;5106876;28;24405;-45
2022/07/27 09:49:45;;;;;;;2.70;1.20;;;;;;;;;;5101443;28;24500;-45
2022/07/27 09:52:20;;;;;;;1.15;0.90;;;;;;;;;;5090133;28;24406;-47
2022/07/27 09:54:46;;;;;;;2.47;1.10;;;;;;;;;;5107298;28;24409;-46
2022/07/27 09:57:11;;;;;;;1.97;1.10;;;;;;;;;;5110238;28;24400;-46
2022/07/27 09:59:36;;;;;;;1.80;0.90;;;;;;;;;;5109217;28;24995;-45
2022/07/27 10:02:01;;;;;;;1.30;0.90;;;;;;;;;;5110351;28;24427;-46
2022/07/27 10:04:26;;;;;;;2.13;1.10;;;;;;;;;;5108832;28;24747;-45
2022/07/27 10:06:52;;;;;;;2.97;1.20;;;;;;;;;;5100168;28;24418;-45
2022/07/27 10:09:18;;;;;;;1.57;1.20;;;;;;;;;;5108790;28;24418;-46
2022/07/27 10:11:44;;;;;;;2.00;1.10;;;;;;;;;;5109968;28;24496;-46
2022/07/27 10:14:09;;;;;;;1.63;1.10;;;;;;;;;;5107018;27;24426;-46
2022/07/27 10:16:35;;;;;;;1.58;1.00;;;;;;;;;;5089057;28;24443;-46
2022/07/27 10:19:20;;;;;;;1.90;1.30;;;;;;;;;;5097011;28;24509;-46
2022/07/27 10:21:46;;;;;;;2.20;1.10;;;;;;;;;;5095281;27;24425;-45
2022/07/27 10:24:25;;;;;;;1.50;1.00;;;;;;;;;;5107877;28;24418;-45
2022/07/27 10:26:50;;;;;;;1.67;0.82;;;;;;;;;;5109883;28;24422;-45
2022/07/27 10:29:17;;;;;;;2.90;1.00;;;;;;;;;;5089566;28;24458;-46
2022/07/27 10:31:55;;;;;;;1.20;0.90;;;;;;;;;;5089150;28;24460;-46
2022/07/27 10:34:36;;;;;;;1.00;1.00;;;;;;;;;;5089123;28;24481;-45
2022/07/27 10:37:31;;;;;;;1.30;1.20;;;;;;;;;;5089209;28;24418;-46
2022/07/27 10:42:41;;;;;;;1.90;1.10;;;;;;;;;;5106427;28;24525;-46
2022/07/27 10:45:11;;;;;;;2.72;0.90;;;;;;;;;;5109340;28;24412;-46
2022/07/27 10:47:36;;;;;;;2.00;1.10;;;;;;;;;;5090400;28;24422;-45
2022/07/27 10:50:10;;;;;;;1.38;1.05;;;;;;;;;;5106988;28;24550;-46
2022/07/27 10:52:40;;;;;;;1.33;1.00;;;;;;;;;;5099130;28;24421;-47
2022/07/27 10:55:05;;;;;;;2.28;1.00;;;;;;;;;;5107664;28;24445;-46
2022/07/27 10:57:30;;;;;;;1.47;1.00;;;;;;;;;;5109056;28;24974;-45
2022/07/27 10:59:55;;;;;;;1.58;1.10;;;;;;;;;;5105196;28;24422;-45
2022/07/27 11:02:35;;;;;;;1.70;1.00;;;;;;;;;;5105723;28;24433;-45
2022/07/27 11:05:02;;;;;;;1.83;1.30;;;;;;;;;;5101099;28;24483;-45
2022/07/27 11:07:27;;;;;;;2.15;1.30;;;;;;;;;;5088087;28;24387;-46
2022/07/27 11:09:52;;;;;;;2.22;1.42;;;;;;;;;;5088796;28;24441;-46
2022/07/27 11:12:18;;;;;;;3.60;1.70;;;;;;;;;;5088172;28;24464;-46
2022/07/27 11:14:44;;;;;;;2.38;1.40;;;;;;;;;;5088467;28;24924;-46
2022/07/27 11:17:09;;;;;;;4.72;1.70;;;;;;;;;;5093686;28;24483;-45
2022/07/27 11:19:34;;;;;;;2.45;1.40;;;;;;;;;;5088391;28;24495;-45
2022/07/27 11:21:59;;;;;;;1.70;1.25;;;;;;;;;;5088421;28;24393;-46
2022/07/27 11:24:26;;;;;;;2.50;1.40;;;;;;;;;;5088795;28;24410;-46
2022/07/27 11:26:52;;;;;;;2.40;1.70;;;;;;;;;;5088110;28;24402;-46
2022/07/27 11:29:18;;;;;;;1.73;1.40;;;;;;;;;;5102265;28;24437;-45
2022/07/27 11:31:44;;;;;;;4.43;2.00;;;;;;;;;;5108797;28;24758;-45
2022/07/27 11:34:10;;;;;;;2.40;2.00;;;;;;;;;;5090430;28;24948;-45
2022/07/27 11:36:37;;;;;;;2.60;2.40;;;;;;;;;;5088719;28;25177;-45
2022/07/27 11:39:04;;;;;;;2.63;2.15;;;;;;;;;;5095933;28;24717;-45
2022/07/27 11:41:31;;;;;;;2.13;1.38;;;;;;;;;;5109051;27;24473;-47
2022/07/27 11:44:04;;;;;;;3.67;2.00;;;;;;;;;;5102424;28;24421;-45
2022/07/27 11:46:31;;;;;;;2.90;1.80;;;;;;;;;;5091993;28;24464;-47
2022/07/27 11:48:58;;;;;;;2.20;1.40;;;;;;;;;;5101115;28;24515;-46
2022/07/27 11:51:23;;;;;;;4.60;1.70;;;;;;;;;;5089006;28;25084;-45
2022/07/27 11:53:59;;;;;;;2.15;1.50;;;;;;;;;;5086889;28;24430;-45
2022/07/27 11:56:26;;;;;;;3.90;1.60;;;;;;;;;;5104102;28;24535;-46
2022/07/27 11:58:59;;;;;;;2.15;1.23;;;;;;;;;;5084272;28;24469;-46
2022/07/27 12:01:25;;;;;;;1.83;1.40;;;;;;;;;;5084648;28;24393;-46
2022/07/27 12:04:00;;;;;;;3.03;1.73;;;;;;;;;;5071523;28;24495;-46
2022/07/27 12:06:26;;;;;;;1.80;1.20;;;;;;;;;;5085113;28;24487;-46
2022/07/27 12:08:51;;;;;;;1.63;1.10;;;;;;;;;;5101354;28;24497;-46
2022/07/27 12:11:25;;;;;;;2.08;1.40;;;;;;;;;;5098703;28;24509;-45
2022/07/27 12:13:55;;;;;;;1.38;1.10;;;;;;;;;;5104257;28;24955;-45
2022/07/27 12:16:21;;;;;;;1.33;1.00;;;;;;;;;;5099165;28;24428;-45
2022/07/27 12:18:46;;;;;;;1.70;1.10;;;;;;;;;;5103439;28;24398;-50
2022/07/27 12:21:14;;;;;;;1.38;1.00;;;;;;;;;;5088348;28;24422;-46
2022/07/27 12:23:48;;;;;;;0.90;0.90;;;;;;;;;;5092255;28;24451;-44
2022/07/27 12:26:20;;;;;;;2.03;1.10;;;;;;;;;;5088000;28;24425;-45
2022/07/27 12:28:45;;;;;;;1.70;1.00;;;;;;;;;;5083947;28;24434;-46
2022/07/27 12:31:16;;;;;;;1.30;1.10;;;;;;;;;;5091134;28;25026;-45
2022/07/27 12:33:42;;;;;;;1.70;1.20;;;;;;;;;;5102472;28;24429;-45
2022/07/27 12:36:07;;;;;;;2.00;1.35;;;;;;;;;;5093907;28;24466;-45
2022/07/27 12:38:40;;;;;;;1.57;0.90;;;;;;;;;;5089567;28;24422;-45
2022/07/27 12:41:06;;;;;;;1.85;1.30;;;;;;;;;;5093081;28;25411;-46
2022/07/27 12:43:31;;;;;;;2.03;1.10;;;;;;;;;;5098902;28;24465;-45
2022/07/27 12:45:56;;;;;;;1.77;1.10;;;;;;;;;;5091515;27;24428;-46
2022/07/27 12:48:21;;;;;;;2.90;1.30;;;;;;;;;;5094937;28;24424;-46
2022/07/27 12:50:55;;;;;;;1.35;1.05;;;;;;;;;;5095195;28;24433;-46
2022/07/27 12:53:20;;;;;;;2.00;1.30;;;;;;;;;;5097826;27;24521;-45
2022/07/27 12:55:45;;;;;;;1.50;1.15;;;;;;;;;;5096539;28;24583;-45
2022/07/27 12:58:12;;;;;;;1.00;0.90;;;;;;;;;;5100089;28;24434;-47
2022/07/27 13:00:38;;;;;;;1.70;1.30;;;;;;;;;;5098112;28;24559;-47
2022/07/27 13:03:04;;;;;;;3.33;1.20;;;;;;;;;;5095461;28;25073;-44
2022/07/27 13:05:30;;;;;;;1.47;1.07;;;;;;;;;;5095857;28;24637;-45
2022/07/27 13:07:55;;;;;;;2.30;1.10;;;;;;;;;;5100190;28;25019;-45
2022/07/27 13:10:21;;;;;;;1.95;1.15;;;;;;;;;;5097144;28;24513;-46
2022/07/27 13:12:46;;;;;;;2.20;1.10;;;;;;;;;;5089820;28;24453;-47
2022/07/27 13:15:12;;;;;;;2.38;1.30;;;;;;;;;;5084712;28;24414;-45
2022/07/27 13:17:41;;;;;;;2.80;1.23;;;;;;;;;;5090138;28;24467;-44
2022/07/27 13:20:07;;;;;;;1.95;1.17;;;;;;;;;;5103071;28;24422;-46
2022/07/27 13:22:33;;;;;;;3.15;1.50;;;;;;;;;;5094887;28;24425;-45
2022/07/27 13:24:58;;;;;;;2.80;1.00;;;;;;;;;;5085449;28;24438;-45
2022/07/27 13:27:23;;;;;;;2.58;1.10;;;;;;;;;;5108435;28;24425;-48
2022/07/27 13:29:48;;;;;;;2.75;1.10;;;;;;;;;;5103505;27;24532;-46
2022/07/27 13:32:13;;;;;;;2.20;1.30;;;;;;;;;;5108576;28;26522;-46
2022/07/27 13:34:38;;;;;;;1.77;1.45;;;;;;;;;;5102300;28;24428;-46
2022/07/27 13:37:04;;;;;;;2.40;1.20;;;;;;;;;;5097361;28;24521;-46
2022/07/27 13:39:29;;;;;;;3.07;1.30;;;;;;;;;;5099155;28;24781;-46
2022/07/27 13:41:54;;;;;;;2.38;1.30;;;;;;;;;;5095348;28;24567;-46
2022/07/27 13:44:20;;;;;;;2.20;1.20;;;;;;;;;;5105009;28;24429;-45
2022/07/27 13:46:46;;;;;;;2.78;1.20;;;;;;;;;;5110742;27;24435;-46
2022/07/27 13:49:11;;;;;;;1.67;1.30;;;;;;;;;;5100376;28;24433;-45
2022/07/27 13:51:37;;;;;;;1.10;1.00;;;;;;;;;;5107576;28;25228;-46
2022/07/27 13:54:02;;;;;;;1.50;1.20;;;;;;;;;;5090734;28;25001;-46
2022/07/27 13:56:30;;;;;;;3.27;1.33;;;;;;;;;;5091748;28;25046;-44
2022/07/27 13:58:55;;;;;;;2.38;1.35;;;;;;;;;;5108255;28;24974;-46
2022/07/27 14:01:21;;;;;;;2.00;1.10;;;;;;;;;;5093084;28;24422;-46
2022/07/27 14:03:46;;;;;;;3.97;1.33;;;;;;;;;;5099217;28;24841;-46
2022/07/27 14:06:11;;;;;;;2.55;1.10;;;;;;;;;;5089682;28;24409;-46
2022/07/27 14:08:36;;;;;;;2.10;0.90;;;;;;;;;;5092223;28;25011;-47
2022/07/27 14:11:02;;;;;;;2.38;1.30;;;;;;;;;;5110126;28;24463;-46
2022/07/27 14:13:31;;;;;;;2.70;1.20;;;;;;;;;;5092362;28;25080;-46
2022/07/27 14:15:57;;;;;;;2.20;1.30;;;;;;;;;;5101412;28;24509;-45
2022/07/27 14:18:23;;;;;;;1.70;1.00;;;;;;;;;;5095454;28;24505;-46
2022/07/27 14:20:48;;;;;;;1.60;1.10;;;;;;;;;;5089376;28;24966;-45
2022/07/27 14:23:13;;;;;;;2.27;1.30;;;;;;;;;;5098307;28;24421;-46
2022/07/27 14:25:38;;;;;;;1.70;1.10;;;;;;;;;;5106690;28;24421;-46
2022/07/27 14:28:04;;;;;;;3.00;1.10;;;;;;;;;;5105414;28;24421;-46
2022/07/27 14:30:29;;;;;;;1.60;1.30;;;;;;;;;;5109778;28;24436;-46
2022/07/27 14:32:54;;;;;;;1.90;1.20;;;;;;;;;;5108189;28;24424;-46
2022/07/27 14:35:20;;;;;;;1.40;0.83;;;;;;;;;;5093951;28;24418;-45
2022/07/27 14:37:45;;;;;;;1.95;1.10;;;;;;;;;;5104692;28;24421;-44
2022/07/27 14:40:11;;;;;;;1.20;1.10;;;;;;;;;;5098419;28;24854;-46
2022/07/27 14:42:36;;;;;;;1.97;1.00;;;;;;;;;;5101906;28;24493;-45
2022/07/27 14:45:02;;;;;;;1.10;0.80;;;;;;;;;;5104200;27;24444;-46